Time;durP1;ratioP1;P1;durP2;ratioP2;P2;SDS_P1;SDS_P2;PMS_P1;PMS_P2;Temp;Humidity;BMP_temperature;BMP_pressure;BME280_temperature;BME280_humidity;BME280_pressure;Samples;Min_cycle;Max_cycle;Signal;HPM_P1;HPM_P2
2022/08/17 00:00:36;;;;;;;8.18;3.90;;;;;;;26.39;39.87;100540.38;4844766;29;20153;-57
2022/08/17 00:03:05;;;;;;;9.50;4.07;;;;;;;25.84;40.17;100538.06;4844596;29;20458;-57
2022/08/17 00:05:35;;;;;;;7.78;4.10;;;;;;;25.98;40.67;100535.22;4844617;29;20030;-57
2022/08/17 00:08:01;;;;;;;5.75;3.83;;;;;;;25.93;41.58;100544.41;4844698;29;20166;-56
2022/08/17 00:10:28;;;;;;;8.65;4.18;;;;;;;25.56;41.39;100542.91;4844723;29;20109;-57
2022/08/17 00:12:54;;;;;;;7.88;3.80;;;;;;;25.64;41.46;100539.38;4844651;29;20053;-57
2022/08/17 00:15:21;;;;;;;6.47;3.70;;;;;;;25.65;41.62;100540.19;4844544;29;20070;-56
2022/08/17 00:17:49;;;;;;;7.78;3.70;;;;;;;25.65;41.17;100546.50;4844520;29;20034;-57
2022/08/17 00:20:16;;;;;;;7.15;3.63;;;;;;;25.49;41.78;100539.81;4844394;29;20117;-57
2022/08/17 00:22:43;;;;;;;6.78;3.85;;;;;;;25.51;42.89;100534.81;4844183;29;20036;-57
2022/08/17 00:25:13;;;;;;;5.28;3.70;;;;;;;25.57;41.24;100535.47;4845028;29;20033;-57
2022/08/17 00:27:40;;;;;;;8.15;4.10;;;;;;;25.46;41.83;100535.75;4845057;29;20022;-57
2022/08/17 00:30:09;;;;;;;4.60;3.28;;;;;;;25.26;42.37;100528.84;4844377;29;20028;-57
2022/08/17 00:32:38;;;;;;;6.60;3.55;;;;;;;25.36;41.78;100535.19;4844028;29;20036;-57
2022/08/17 00:35:07;;;;;;;5.75;3.63;;;;;;;24.80;42.74;100531.81;4844030;29;20049;-57
2022/08/17 00:37:33;;;;;;;10.75;3.90;;;;;;;24.86;42.33;100529.78;4843927;29;20041;-57
2022/08/17 00:39:59;;;;;;;7.25;3.47;;;;;;;24.84;43.08;100530.09;4844137;29;20033;-57
2022/08/17 00:42:28;;;;;;;7.22;3.67;;;;;;;24.80;42.65;100523.63;4844059;29;20034;-57
2022/08/17 00:44:55;;;;;;;7.43;4.15;;;;;;;24.34;43.17;100530.06;4844307;29;20038;-58
2022/08/17 00:47:21;;;;;;;11.13;3.88;;;;;;;24.16;43.18;100528.28;4843785;29;20057;-58
2022/08/17 00:49:47;;;;;;;5.78;3.53;;;;;;;24.20;44.11;100532.81;4844059;29;20037;-58
2022/08/17 00:52:19;;;;;;;6.20;3.60;;;;;;;24.16;44.51;100544.69;4844179;29;20182;-58
2022/08/17 00:54:48;;;;;;;9.13;3.95;;;;;;;23.97;44.87;100529.16;4843498;29;20038;-57
2022/08/17 00:57:45;;;;;;;9.25;3.83;;;;;;;23.84;44.98;100540.09;4843747;29;20026;-57
2022/08/17 01:00:20;;;;;;;7.57;3.25;;;;;;;23.56;45.97;100545.47;4843459;29;20038;-56
2022/08/17 01:02:48;;;;;;;5.97;3.42;;;;;;;23.44;47.12;100540.50;4843497;29;20462;-57
2022/08/17 01:05:22;;;;;;;9.35;3.25;;;;;;;23.04;47.62;100543.84;4843396;29;20037;-56
2022/08/17 01:07:49;;;;;;;8.40;3.47;;;;;;;22.89;48.04;100545.72;4843291;29;20037;-57
2022/08/17 01:10:19;;;;;;;6.35;3.55;;;;;;;22.39;49.12;100550.75;4843490;29;20072;-56
2022/08/17 01:12:45;;;;;;;8.60;4.05;;;;;;;22.48;49.00;100545.44;4843303;29;20032;-55
2022/08/17 01:15:11;;;;;;;12.32;4.53;;;;;;;22.56;48.96;100546.72;4843348;29;20030;-55
2022/08/17 01:17:38;;;;;;;22.13;5.05;;;;;;;22.32;49.95;100550.28;4827074;29;20062;-56
2022/08/17 01:20:04;;;;;;;16.08;3.88;;;;;;;22.01;51.29;100554.44;4843478;29;20037;-55
2022/08/17 01:22:31;;;;;;;6.55;3.92;;;;;;;21.47;52.78;100544.59;4843280;29;20030;-56
2022/08/17 01:25:00;;;;;;;5.38;3.35;;;;;;;21.67;52.86;100554.50;4843236;29;20026;-55
2022/08/17 01:27:27;;;;;;;7.75;3.58;;;;;;;21.77;50.94;100557.13;4826960;29;20101;-55
2022/08/17 01:29:59;;;;;;;9.43;3.95;;;;;;;21.78;50.81;100545.94;4842998;29;20033;-55
2022/08/17 01:32:27;;;;;;;9.82;3.75;;;;;;;21.46;52.19;100551.16;4843145;29;20033;-58
2022/08/17 01:34:55;;;;;;;5.07;3.38;;;;;;;21.30;52.88;100556.69;4843078;29;20036;-56
2022/08/17 01:37:29;;;;;;;12.73;4.00;;;;;;;21.44;52.46;100556.06;4842814;29;20117;-57
2022/08/17 01:40:16;;;;;;;5.85;3.72;;;;;;;20.90;53.69;100552.34;4843079;29;20113;-56
2022/08/17 01:42:56;;;;;;;7.70;3.92;;;;;;;20.77;52.91;100551.06;4843080;29;20034;-56
2022/08/17 01:45:29;;;;;;;10.55;3.50;;;;;;;20.83;53.37;100547.22;4842847;29;20033;-56
2022/08/17 01:47:56;;;;;;;9.95;3.88;;;;;;;20.79;53.70;100557.03;4842790;29;20050;-56
2022/08/17 01:50:28;;;;;;;6.13;3.42;;;;;;;20.72;53.81;100540.22;4842952;29;20026;-56
2022/08/17 01:53:07;;;;;;;9.90;3.65;;;;;;;20.58;54.38;100543.81;4842960;29;20037;-57
2022/08/17 01:55:40;;;;;;;5.53;3.83;;;;;;;20.37;55.05;100553.94;4842931;29;20104;-57
2022/08/17 01:58:08;;;;;;;6.43;3.90;;;;;;;20.11;55.45;100551.31;4842850;29;20034;-57
2022/08/17 02:00:39;;;;;;;5.97;3.45;;;;;;;20.11;55.87;100564.91;4843109;29;20040;-57
2022/08/17 02:03:07;;;;;;;8.50;3.40;;;;;;;20.11;55.53;100553.22;4842523;29;20070;-57
2022/08/17 02:05:34;;;;;;;5.03;3.85;;;;;;;19.96;56.35;100562.22;4843009;29;20105;-57
2022/08/17 02:08:01;;;;;;;6.07;3.70;;;;;;;20.05;56.39;100563.28;4842636;29;20086;-57
2022/08/17 02:10:29;;;;;;;7.40;3.75;;;;;;;19.76;57.46;100569.28;4842620;29;20747;-57
2022/08/17 02:12:55;;;;;;;8.02;4.30;;;;;;;19.52;58.15;100571.75;4842237;29;20030;-57
2022/08/17 02:15:22;;;;;;;5.53;4.25;;;;;;;19.42;59.13;100573.63;4842471;29;20552;-56
2022/08/17 02:17:48;;;;;;;6.55;4.43;;;;;;;19.43;59.24;100572.53;4842718;29;20129;-57
2022/08/17 02:20:15;;;;;;;6.28;4.00;;;;;;;19.14;60.49;100572.25;4843037;29;20042;-56
2022/08/17 02:22:44;;;;;;;6.20;4.13;;;;;;;19.26;60.18;100573.63;4842679;29;20033;-57
2022/08/17 02:25:15;;;;;;;7.10;4.18;;;;;;;19.28;60.36;100575.28;4841727;29;20090;-56
2022/08/17 02:27:41;;;;;;;8.23;4.75;;;;;;;19.21;61.10;100570.09;4842255;29;20026;-56
2022/08/17 02:30:10;;;;;;;20.70;5.50;;;;;;;19.32;60.46;100576.34;4842091;29;20030;-55
2022/08/17 02:32:36;;;;;;;5.25;3.97;;;;;;;18.93;61.91;100585.81;4842130;29;20109;-54
2022/08/17 02:35:05;;;;;;;11.20;4.85;;;;;;;19.06;62.03;100570.91;4842412;29;20029;-56
2022/08/17 02:37:32;;;;;;;8.43;4.28;;;;;;;19.00;62.41;100574.69;4842257;29;20026;-54
2022/08/17 02:39:58;;;;;;;14.23;4.28;;;;;;;19.01;62.57;100568.19;4842047;29;20077;-55
2022/08/17 02:42:45;;;;;;;8.85;3.80;;;;;;;18.59;63.77;100587.25;4842129;29;20049;-55
2022/08/17 02:45:17;;;;;;;84.20;8.60;;;;;;;18.43;64.01;100589.94;4842682;29;20072;-56
2022/08/17 02:47:45;;;;;;;62.28;7.82;;;;;;;18.01;65.95;100597.28;4841022;29;20061;-56
2022/08/17 02:50:15;;;;;;;6.28;3.25;;;;;;;17.99;65.99;100589.41;4841971;29;20041;-56
2022/08/17 02:52:44;;;;;;;5.20;2.95;;;;;;;17.88;65.93;100591.25;4842087;29;20026;-57
2022/08/17 02:55:34;;;;;;;5.97;3.70;;;;;;;17.56;66.91;100599.34;4842941;29;20049;-57
2022/08/17 02:58:02;;;;;;;6.13;3.60;;;;;;;17.61;67.08;100606.69;4842154;29;20038;-57
2022/08/17 03:00:35;;;;;;;4.40;3.03;;;;;;;17.55;67.27;100608.56;4842036;29;20089;-57
2022/08/17 03:03:04;;;;;;;5.75;3.30;;;;;;;17.57;67.29;100611.81;4842254;29;20166;-57
2022/08/17 03:05:33;;;;;;;4.68;2.80;;;;;;;17.39;67.61;100613.00;4842049;29;20041;-56
2022/08/17 03:08:00;;;;;;;6.00;2.90;;;;;;;17.35;68.11;100619.19;4842035;29;20030;-57
2022/08/17 03:10:27;;;;;;;4.40;2.47;;;;;;;17.38;67.81;100618.69;4841910;29;20479;-57
2022/08/17 03:12:53;;;;;;;3.40;2.50;;;;;;;17.10;69.04;100614.31;4842104;29;20026;-57
2022/08/17 03:15:22;;;;;;;5.85;2.65;;;;;;;16.98;69.90;100614.47;4841725;29;20082;-57
2022/08/17 03:17:51;;;;;;;4.80;2.38;;;;;;;17.06;69.88;100624.03;4842471;29;20029;-58
2022/08/17 03:20:17;;;;;;;4.40;2.55;;;;;;;16.89;70.17;100624.13;4842080;29;20034;-58
2022/08/17 03:22:50;;;;;;;6.10;2.63;;;;;;;16.75;71.18;100628.25;4841796;29;20058;-58
2022/08/17 03:25:21;;;;;;;3.25;2.30;;;;;;;16.80;70.82;100629.13;4843001;29;20026;-58
2022/08/17 03:27:48;;;;;;;5.30;2.25;;;;;;;16.61;71.38;100620.50;4845715;29;20050;-57
2022/08/17 03:30:14;;;;;;;6.20;2.53;;;;;;;16.52;71.93;100630.13;4845716;29;20025;-57
2022/08/17 03:32:47;;;;;;;7.53;2.55;;;;;;;16.58;71.71;100634.50;4845442;29;20040;-58
2022/08/17 03:35:16;;;;;;;2.80;2.00;;;;;;;16.48;71.56;100636.25;4845443;29;20041;-57
2022/08/17 03:37:42;;;;;;;6.05;2.70;;;;;;;16.47;71.54;100638.16;4845531;29;20028;-57
2022/08/17 03:40:09;;;;;;;4.40;2.25;;;;;;;16.43;72.35;100636.19;4845461;29;20442;-57
2022/08/17 03:42:38;;;;;;;5.00;1.98;;;;;;;16.40;72.52;100640.22;4845266;29;20038;-58
2022/08/17 03:45:06;;;;;;;5.07;2.35;;;;;;;16.33;72.70;100642.28;4845414;29;20050;-58
2022/08/17 03:58:36;;;;;;;3.10;2.28;;;;;;;16.21;73.22;100665.84;4845449;29;20041;-58
2022/08/17 04:01:06;;;;;;;7.43;2.70;;;;;;;16.21;72.98;100673.97;4844937;29;20026;-58
2022/08/17 04:03:32;;;;;;;2.75;1.90;;;;;;;16.02;73.86;100685.03;4844779;29;20037;-58
2022/08/17 04:06:01;;;;;;;6.07;2.28;;;;;;;16.05;73.98;100686.44;4844730;29;20029;-57
2022/08/17 04:08:28;;;;;;;4.43;2.40;;;;;;;16.04;73.52;100690.16;4844933;29;20185;-58
2022/08/17 04:10:56;;;;;;;8.88;3.53;;;;;;;16.05;73.84;100694.53;4828125;29;20032;-58
2022/08/17 04:13:22;;;;;;;5.65;3.22;;;;;;;15.70;75.60;100700.13;4844562;29;20037;-57
2022/08/17 04:15:49;;;;;;;9.68;4.82;;;;;;;15.70;75.70;100698.25;4844602;29;20064;-57
2022/08/17 04:18:16;;;;;;;7.72;5.03;;;;;;;15.86;74.92;100698.50;4844493;29;20033;-57
2022/08/17 04:20:43;;;;;;;5.05;3.17;;;;;;;15.83;74.94;100705.22;4844405;29;20108;-58
2022/08/17 04:23:13;;;;;;;5.20;2.10;;;;;;;15.88;74.50;100708.03;4844579;29;20034;-57
2022/08/17 04:25:44;;;;;;;3.88;1.70;;;;;;;15.71;75.08;100705.31;4844311;29;20026;-58
2022/08/17 04:28:11;;;;;;;3.15;1.70;;;;;;;15.62;75.65;100704.03;4844224;29;20421;-58
2022/08/17 04:30:37;;;;;;;4.07;1.70;;;;;;;15.64;75.37;100706.50;4844127;29;20375;-58
2022/08/17 04:33:14;;;;;;;6.10;2.22;;;;;;;15.49;76.08;100705.16;4844181;29;20036;-59
2022/08/17 04:35:43;;;;;;;4.65;1.92;;;;;;;15.43;76.51;100713.34;4844742;29;20368;-58
2022/08/17 04:38:12;;;;;;;5.90;1.60;;;;;;;15.49;76.05;100710.53;4843654;29;20479;-58
2022/08/17 04:43:25;;;;;;;5.07;2.40;;;;;;;15.37;76.39;100707.06;4844164;29;20041;-57
2022/08/17 04:45:58;;;;;;;9.07;2.65;;;;;;;15.52;76.18;100707.34;4843986;29;20463;-59
2022/08/17 04:48:28;;;;;;;5.93;2.30;;;;;;;15.43;75.86;100711.47;4844013;29;20103;-57
2022/08/17 04:50:55;;;;;;;6.85;2.72;;;;;;;15.38;76.06;100716.81;4844046;29;20049;-58
2022/08/17 04:53:21;;;;;;;4.45;2.40;;;;;;;15.28;76.68;100703.94;4843746;29;20094;-55
2022/08/17 04:55:50;;;;;;;2.70;1.90;;;;;;;15.25;76.48;100711.69;4843682;29;20433;-58
2022/08/17 04:58:16;;;;;;;4.13;1.92;;;;;;;15.22;76.79;100709.47;4844188;29;20030;-57
2022/08/17 05:00:42;;;;;;;9.50;2.10;;;;;;;15.22;76.64;100713.00;4843932;29;20082;-57
2022/08/17 05:03:09;;;;;;;4.68;2.10;;;;;;;15.29;76.48;100715.53;4843315;29;20040;-57
2022/08/17 05:05:37;;;;;;;3.63;2.05;;;;;;;15.21;76.87;100710.50;4843574;29;20403;-57
2022/08/17 05:08:06;;;;;;;4.10;1.80;;;;;;;15.28;76.65;100713.91;4843268;29;20105;-57
2022/08/17 05:10:36;;;;;;;4.22;1.98;;;;;;;15.25;76.84;100719.75;4843225;29;20029;-57
2022/08/17 05:13:06;;;;;;;5.78;2.17;;;;;;;15.22;77.06;100725.66;4843615;29;20057;-57
2022/08/17 05:15:34;;;;;;;4.22;1.90;;;;;;;15.22;76.98;100720.25;4843432;29;20034;-57
2022/08/17 05:18:00;;;;;;;4.07;2.00;;;;;;;15.19;77.29;100720.72;4843454;29;20456;-57
2022/08/17 05:20:28;;;;;;;3.50;1.98;;;;;;;15.14;77.28;100732.22;4843277;29;20034;-57
2022/08/17 05:22:58;;;;;;;5.20;1.80;;;;;;;15.14;77.77;100729.53;4843165;29;20037;-58
2022/08/17 05:25:27;;;;;;;2.97;1.65;;;;;;;15.18;77.26;100730.69;4843519;29;20042;-58
2022/08/17 05:27:54;;;;;;;4.50;1.90;;;;;;;15.00;78.74;100737.06;4843617;29;20030;-57
2022/08/17 05:30:22;;;;;;;4.13;1.80;;;;;;;14.86;79.44;100735.69;4843735;29;20046;-58
2022/08/17 05:32:58;;;;;;;8.18;1.73;;;;;;;14.92;79.37;100737.44;4843448;29;20034;-58
2022/08/17 05:35:26;;;;;;;4.43;1.80;;;;;;;14.90;79.54;100736.84;4844052;29;20034;-58
2022/08/17 05:37:53;;;;;;;4.43;1.77;;;;;;;14.83;80.16;100744.25;4843397;29;20502;-58
2022/08/17 05:40:20;;;;;;;3.70;1.85;;;;;;;14.81;80.64;100742.84;4843501;29;20033;-57
2022/08/17 05:42:50;;;;;;;3.25;1.60;;;;;;;14.69;81.21;100750.94;4843485;29;20041;-58
2022/08/17 05:45:19;;;;;;;2.80;1.58;;;;;;;14.82;80.53;100758.75;4843224;29;20129;-58
2022/08/17 05:47:46;;;;;;;2.28;1.73;;;;;;;14.87;80.56;100758.88;4842277;29;20439;-58
2022/08/17 05:50:22;;;;;;;3.30;1.83;;;;;;;14.65;81.73;100757.84;4842341;29;20038;-58
2022/08/17 05:53:19;;;;;;;2.92;1.98;;;;;;;14.62;82.22;100764.53;4842895;29;20026;-58
2022/08/17 05:55:48;;;;;;;7.30;2.00;;;;;;;14.75;81.37;100769.66;4842832;29;20513;-58
2022/08/17 05:58:28;;;;;;;4.50;1.83;;;;;;;14.75;80.89;100771.53;4842840;29;20499;-58
2022/08/17 06:01:03;;;;;;;2.97;1.40;;;;;;;14.67;80.82;100766.53;4842693;29;20441;-58
2022/08/17 06:03:47;;;;;;;2.90;1.48;;;;;;;14.57;81.05;100768.97;4842572;29;20030;-58
2022/08/17 06:06:33;;;;;;;3.17;1.38;;;;;;;14.60;81.00;100776.56;4842597;29;20117;-58
2022/08/17 06:09:25;;;;;;;4.03;2.20;;;;;;;14.57;80.74;100772.50;4842604;29;20049;-58
2022/08/17 06:12:21;;;;;;;2.17;1.63;;;;;;;14.50;80.76;100783.38;4805022;29;20049;-58
2022/08/17 06:14:57;;;;;;;4.70;2.00;;;;;;;14.48;80.86;100774.69;4832759;29;20057;-58
2022/08/17 06:17:25;;;;;;;2.92;1.85;;;;;;;14.52;80.63;100775.88;4842522;29;20094;-58
2022/08/17 06:19:59;;;;;;;2.67;1.65;;;;;;;14.52;80.33;100775.88;4842598;29;20037;-58
2022/08/17 06:22:32;;;;;;;1.90;1.20;;;;;;;14.49;80.64;100781.75;4842440;29;20030;-58
2022/08/17 06:25:24;;;;;;;2.72;1.60;;;;;;;14.54;80.07;100783.72;4842424;29;20387;-58
2022/08/17 06:28:01;;;;;;;4.65;1.63;;;;;;;14.47;80.73;100791.91;4842635;29;20038;-57
2022/08/17 06:30:33;;;;;;;2.13;1.42;;;;;;;14.46;80.36;100787.56;4842396;29;20082;-58
2022/08/17 06:33:12;;;;;;;2.63;1.58;;;;;;;14.49;80.46;100780.91;4842119;29;20364;-58
2022/08/17 06:35:47;;;;;;;4.18;1.90;;;;;;;14.46;80.27;100792.13;4842310;29;20386;-58
2022/08/17 06:38:19;;;;;;;2.45;1.58;;;;;;;14.51;80.50;100782.31;4842199;29;20022;-58
2022/08/17 06:41:12;;;;;;;4.32;2.05;;;;;;;14.55;80.10;100780.00;4842199;29;20077;-58
2022/08/17 06:44:15;;;;;;;4.57;1.98;;;;;;;14.69;79.44;100783.25;4842357;29;20387;-57
2022/08/17 06:46:47;;;;;;;2.70;1.92;;;;;;;14.60;79.92;100779.28;4841889;29;20072;-58
2022/08/17 06:49:13;;;;;;;4.60;2.35;;;;;;;14.57;80.10;100774.38;4842380;29;20030;-58
2022/08/17 06:52:02;;;;;;;2.75;2.10;;;;;;;14.51;80.53;100771.53;4842093;29;20061;-58
2022/08/17 06:54:48;;;;;;;6.22;2.40;;;;;;;14.63;79.97;100776.13;4840694;29;20042;-58
2022/08/17 06:57:19;;;;;;;3.92;2.08;;;;;;;14.67;79.41;100771.91;4841755;29;20052;-57
2022/08/17 07:00:14;;;;;;;2.83;1.60;;;;;;;14.53;80.21;100772.13;4843641;29;20058;-58
2022/08/17 07:02:40;;;;;;;3.67;1.90;;;;;;;14.69;79.71;100769.78;4846319;29;20045;-58
2022/08/17 07:05:08;;;;;;;2.80;1.70;;;;;;;14.55;80.53;100769.22;4845785;29;20387;-58
2022/08/17 07:10:25;;;;;;;4.85;2.13;;;;;;;14.75;79.67;100768.84;4846066;29;20071;-58
2022/08/17 07:12:54;;;;;;;4.55;1.85;;;;;;;14.78;79.85;100768.38;4845662;29;20429;-57
2022/08/17 07:15:34;;;;;;;4.03;2.13;;;;;;;14.64;80.34;100777.75;4845618;29;20109;-58
2022/08/17 07:18:02;;;;;;;2.78;1.60;;;;;;;14.64;80.12;100770.50;4845952;29;20038;-58
2022/08/17 07:20:30;;;;;;;2.70;1.60;;;;;;;14.56;80.34;100780.81;4829127;29;20038;-57
2022/08/17 07:23:43;;;;;;;4.63;1.70;;;;;;;14.38;81.54;100779.84;4845577;29;20030;-58
2022/08/17 07:26:12;;;;;;;2.38;1.30;;;;;;;14.35;82.15;100782.16;4829294;29;20053;-58
2022/08/17 07:28:38;;;;;;;4.07;1.70;;;;;;;14.34;82.17;100778.66;4845411;29;20037;-58
2022/08/17 07:31:05;;;;;;;2.70;1.85;;;;;;;14.20;82.88;100788.78;4845260;29;20033;-58
2022/08/17 07:33:35;;;;;;;2.47;1.50;;;;;;;14.31;82.77;100784.47;4845208;29;20428;-58
2022/08/17 07:36:01;;;;;;;3.85;1.98;;;;;;;14.15;83.31;100790.53;4845147;29;20093;-57
2022/08/17 07:38:34;;;;;;;3.10;1.77;;;;;;;14.27;82.54;100786.84;4844950;29;20037;-58
2022/08/17 07:41:06;;;;;;;2.60;1.95;;;;;;;14.37;81.98;100783.56;4845258;29;20030;-58
2022/08/17 07:43:41;;;;;;;2.55;1.83;;;;;;;14.32;82.08;100791.50;4845054;29;20029;-58
2022/08/17 07:49:11;;;;;;;2.88;2.00;;;;;;;14.48;81.57;100784.66;4845245;29;20170;-58
2022/08/17 07:51:44;;;;;;;2.72;2.30;;;;;;;14.38;81.72;100796.00;4845096;29;20117;-58
2022/08/17 07:54:21;;;;;;;3.63;2.30;;;;;;;14.31;82.65;100781.78;4845013;29;20030;-58
2022/08/17 07:57:14;;;;;;;3.08;2.00;;;;;;;14.52;81.87;100792.03;4844974;29;20030;-58
2022/08/17 08:00:12;;;;;;;3.90;1.80;;;;;;;14.42;82.01;100789.06;4844837;29;20450;-58
2022/08/17 08:02:40;;;;;;;5.18;2.30;;;;;;;14.29;82.53;100788.47;4844896;29;20078;-58
2022/08/17 08:05:20;;;;;;;2.15;1.60;;;;;;;14.49;81.46;100792.53;4844876;29;20037;-58
2022/08/17 08:08:17;;;;;;;3.78;2.03;;;;;;;14.40;81.63;100798.44;4844725;29;20049;-58
2022/08/17 08:10:55;;;;;;;4.78;2.15;;;;;;;14.36;81.89;100798.06;4828292;29;20471;-58
2022/08/17 08:13:30;;;;;;;3.33;2.10;;;;;;;14.37;81.58;100802.41;4844319;29;20037;-58
2022/08/17 08:16:14;;;;;;;;;;;;;;;14.45;81.44;100802.06;4845285;29;20094;-58
2022/08/17 08:18:47;;;;;;;3.97;2.42;;;;;;;14.47;81.49;100808.06;4844714;29;19939;-58
2022/08/17 08:21:34;;;;;;;2.75;2.00;;;;;;;14.62;80.90;100804.13;4844469;29;20087;-59
2022/08/17 08:24:18;;;;;;;2.92;2.20;;;;;;;14.48;81.27;100807.00;4844557;29;20440;-58
2022/08/17 08:27:05;;;;;;;3.50;1.80;;;;;;;14.45;81.34;100803.94;4844427;29;20037;-58
2022/08/17 08:29:52;;;;;;;3.25;1.80;;;;;;;14.36;82.04;100797.25;4844887;29;20058;-58
2022/08/17 08:32:19;;;;;;;2.28;1.35;;;;;;;14.55;80.92;100795.31;4844334;29;20476;-58
2022/08/17 08:35:07;;;;;;;2.55;1.77;;;;;;;14.50;80.92;100796.03;4844794;29;20472;-58
2022/08/17 08:37:50;;;;;;;3.15;2.03;;;;;;;14.38;81.58;100805.91;4844475;29;20061;-58
2022/08/17 08:40:39;;;;;;;2.92;1.52;;;;;;;14.41;81.73;100806.28;4844321;29;20075;-58
2022/08/17 08:43:29;;;;;;;2.58;1.80;;;;;;;14.43;81.75;100806.03;4844207;29;20022;-58
2022/08/17 08:46:04;;;;;;;2.58;1.48;;;;;;;14.38;81.94;100816.69;4844049;29;20475;-58
2022/08/17 08:49:01;;;;;;;4.20;1.90;;;;;;;14.45;81.61;100814.72;4844074;29;20026;-58
2022/08/17 08:51:45;;;;;;;3.53;1.40;;;;;;;14.47;81.49;100818.84;4845389;29;20042;-58
2022/08/17 08:54:20;;;;;;;4.25;1.60;;;;;;;14.26;82.37;100822.88;4844907;29;20042;-58
2022/08/17 08:56:50;;;;;;;3.33;1.48;;;;;;;14.26;82.59;100820.16;4845348;29;20484;-58
2022/08/17 08:59:28;;;;;;;4.82;2.35;;;;;;;14.41;82.04;100827.00;4844485;29;20170;-58
2022/08/17 09:02:14;;;;;;;4.72;1.70;;;;;;;14.21;82.20;100835.38;4844367;29;20030;-58
2022/08/17 09:05:08;;;;;;;3.55;1.75;;;;;;;14.14;82.45;100827.41;4843652;29;20030;-58
2022/08/17 09:07:48;;;;;;;2.35;1.55;;;;;;;14.16;82.45;100830.72;4843647;29;20034;-58
2022/08/17 09:10:29;;;;;;;4.43;1.67;;;;;;;14.23;82.06;100831.41;4843986;29;20042;-58
2022/08/17 09:13:34;;;;;;;1.65;1.40;;;;;;;14.29;81.72;100829.69;4843596;29;20450;-58
2022/08/17 09:16:28;;;;;;;2.00;1.35;;;;;;;14.23;82.49;100836.81;4815492;29;20112;-58
2022/08/17 09:19:18;;;;;;;4.32;1.83;;;;;;;14.39;81.31;100840.72;4843644;29;20048;-57
2022/08/17 09:22:16;;;;;;;3.17;1.40;;;;;;;14.36;81.58;100837.66;4830779;29;20121;-58
2022/08/17 09:24:49;;;;;;;2.58;1.15;;;;;;;14.19;82.43;100835.63;4831176;29;20516;-58
2022/08/17 09:27:21;;;;;;;2.25;1.25;;;;;;;14.16;82.72;100836.09;4843425;29;20030;-57
2022/08/17 09:29:56;;;;;;;4.28;1.55;;;;;;;14.07;nan;100842.84;4843404;29;20135;-58
2022/08/17 09:32:54;;;;;;;3.05;1.75;;;;;;;14.17;82.25;100843.09;4843388;29;20037;-58
2022/08/17 09:35:24;;;;;;;3.50;1.20;;;;;;;14.19;82.67;100840.19;4843159;29;20034;-57
2022/08/17 09:38:09;;;;;;;2.58;1.17;;;;;;;14.11;82.43;100853.97;4843174;29;20033;-57
2022/08/17 09:40:48;;;;;;;2.60;1.23;;;;;;;14.09;82.26;100845.28;4843239;29;20034;-58
2022/08/17 09:43:26;;;;;;;3.03;1.25;;;;;;;14.29;81.46;100856.59;4843549;29;20059;-58
2022/08/17 09:46:10;;;;;;;4.55;1.25;;;;;;;14.21;81.72;100862.28;4842974;29;20037;-58
2022/08/17 09:49:37;;;;;;;1.60;1.10;;;;;;;14.12;82.59;100864.50;4843424;29;20050;-58
2022/08/17 09:52:19;;;;;;;2.67;1.40;;;;;;;14.22;81.88;100859.41;4801989;29;20039;-58
2022/08/17 09:54:47;;;;;;;2.28;1.65;;;;;;;14.22;81.75;100861.28;4843044;29;20034;-58
2022/08/17 09:57:38;;;;;;;2.25;1.05;;;;;;;14.32;81.38;100863.38;4843066;29;20112;-57
2022/08/17 10:00:12;;;;;;;2.08;1.00;;;;;;;14.22;81.56;100856.72;4842986;29;20033;-58
2022/08/17 10:02:59;;;;;;;3.50;1.10;;;;;;;14.10;82.43;100863.06;4842625;29;20033;-58
2022/08/17 10:05:38;;;;;;;1.42;0.77;;;;;;;14.09;82.32;100858.75;4824061;29;20074;-57
2022/08/17 10:08:11;;;;;;;1.98;1.23;;;;;;;14.13;82.49;100859.94;4842674;29;20033;-58
2022/08/17 10:10:49;;;;;;;1.55;0.95;;;;;;;13.91;83.75;100852.38;4842695;29;20040;-58
2022/08/17 10:13:36;;;;;;;1.70;1.17;;;;;;;13.97;83.57;100859.53;4826495;29;20472;-58
2022/08/17 10:16:11;;;;;;;1.27;1.08;;;;;;;14.03;82.99;100857.78;4843227;29;20464;-57
2022/08/17 10:18:46;;;;;;;1.70;1.10;;;;;;;14.14;82.52;100856.19;4842500;29;20444;-58
2022/08/17 10:27:03;;;;;;;1.83;1.20;;;;;;;14.00;82.91;100855.56;4842591;29;20038;-58
2022/08/17 10:29:38;;;;;;;1.75;1.27;;;;;;;14.03;82.53;100848.91;4842301;29;20049;-57
2022/08/17 10:32:09;;;;;;;2.42;1.52;;;;;;;14.16;82.16;100846.03;4842796;29;20086;-58
2022/08/17 10:35:01;;;;;;;3.20;1.52;;;;;;;14.17;81.92;100845.81;4842324;29;20029;-58
2022/08/17 10:37:43;;;;;;;3.80;1.58;;;;;;;14.25;81.30;100845.47;4842263;29;20514;-58
2022/08/17 10:40:44;;;;;;;2.10;1.35;;;;;;;14.33;81.43;100846.19;4842318;29;20025;-58
2022/08/17 10:43:22;;;;;;;5.05;1.73;;;;;;;14.13;81.91;100847.31;4819671;29;20046;-57
2022/08/17 10:46:06;;;;;;;4.57;1.77;;;;;;;14.16;82.23;100841.47;4822797;29;20110;-58
2022/08/17 10:48:37;;;;;;;2.55;1.70;;;;;;;14.12;83.01;100852.91;4822269;29;20077;-58
2022/08/17 10:51:34;;;;;;;2.08;1.15;;;;;;;14.14;82.67;100856.19;4822164;29;20034;-58
2022/08/17 10:54:00;;;;;;;2.50;1.15;;;;;;;14.27;81.71;100853.31;4822117;29;20125;-58
2022/08/17 10:56:49;;;;;;;2.40;1.55;;;;;;;14.20;81.66;100858.78;4821794;29;20050;-57
2022/08/17 10:59:34;;;;;;;2.28;1.45;;;;;;;14.19;82.16;100850.94;4822077;29;20065;-58
2022/08/17 11:02:08;;;;;;;3.92;1.50;;;;;;;14.16;82.33;100854.94;4821962;29;20031;-58
2022/08/17 11:04:48;;;;;;;3.97;1.10;;;;;;;14.14;82.40;100865.09;4822279;29;20062;-58
2022/08/17 11:08:11;;;;;;;3.63;1.85;;;;;;;14.27;82.07;100864.09;4822240;29;20550;-58
2022/08/17 11:10:45;;;;;;;3.08;1.58;;;;;;;14.26;82.21;100874.00;4767644;30;20044;-57
2022/08/17 11:13:55;;;;;;;2.58;1.80;;;;;;;14.14;82.62;100875.03;4767718;30;20114;-58
2022/08/17 11:16:49;;;;;;;4.97;1.90;;;;;;;14.19;82.41;100881.38;4828903;29;20046;-58
2022/08/17 11:19:43;;;;;;;4.03;1.98;;;;;;;14.22;82.13;100877.41;4841893;29;20030;-58
2022/08/17 11:22:20;;;;;;;2.10;1.45;;;;;;;14.09;82.53;100881.09;4841620;29;20026;-58
2022/08/17 11:24:50;;;;;;;3.00;1.80;;;;;;;14.19;81.67;100888.63;4841824;29;20121;-57
2022/08/17 11:27:35;;;;;;;3.50;1.38;;;;;;;14.10;81.91;100895.38;4825240;29;20037;-57
2022/08/17 11:30:07;;;;;;;2.97;1.48;;;;;;;14.14;82.17;100896.56;4841867;29;20102;-58
2022/08/17 11:32:51;;;;;;;2.47;1.25;;;;;;;14.14;81.84;100899.25;4841735;29;20037;-58
2022/08/17 11:35:20;;;;;;;6.35;1.23;;;;;;;14.06;82.55;100910.34;4841553;29;20082;-57
2022/08/17 11:38:28;;;;;;;2.42;1.10;;;;;;;14.12;82.39;100902.19;4841602;29;20096;-58
2022/08/17 11:41:03;;;;;;;2.90;0.90;;;;;;;13.96;83.49;100909.03;4841615;29;20551;-57
2022/08/17 11:44:03;;;;;;;2.37;1.10;;;;;;;13.90;84.45;100904.53;4841588;29;20125;-58
2022/08/17 11:52:46;;;;;;;2.22;1.10;;;;;;;13.81;85.74;100913.13;4845026;29;20110;-58
2022/08/17 11:55:35;;;;;;;1.63;1.20;;;;;;;13.89;85.25;100918.22;4845041;29;20091;-58
2022/08/17 11:58:43;;;;;;;2.65;1.25;;;;;;;13.88;85.57;100925.50;4826814;29;20098;-57
2022/08/17 12:01:21;;;;;;;1.48;1.00;;;;;;;13.87;85.72;100918.44;4826869;29;20395;-57
2022/08/17 12:03:57;;;;;;;2.58;1.10;;;;;;;13.89;85.46;100921.75;4845098;29;20025;-57
2022/08/17 12:06:26;;;;;;;1.17;0.90;;;;;;;13.76;86.33;100929.94;4844809;29;20033;-57
2022/08/17 12:09:00;;;;;;;1.77;1.00;;;;;;;13.78;86.80;100925.19;4844673;29;20026;-63
2022/08/17 12:11:41;;;;;;;2.80;1.00;;;;;;;13.84;86.10;100935.03;4845301;29;20483;-58
2022/08/17 12:14:09;;;;;;;2.20;0.80;;;;;;;13.94;85.77;100929.16;4844664;29;20038;-58
2022/08/17 12:16:36;;;;;;;2.08;1.00;;;;;;;14.03;85.54;100925.06;4844624;29;20030;-58
2022/08/17 12:19:04;;;;;;;2.40;0.88;;;;;;;14.00;85.28;100918.28;4845122;29;20022;-58
2022/08/17 12:21:56;;;;;;;2.00;0.98;;;;;;;13.96;84.89;100930.53;4844692;29;20527;-58
2022/08/17 12:24:49;;;;;;;3.58;1.00;;;;;;;13.97;84.90;100934.88;4844312;29;20407;-58
2022/08/17 12:27:26;;;;;;;5.15;1.30;;;;;;;13.88;85.63;100944.31;4845251;29;20112;-57
2022/08/17 12:29:53;;;;;;;2.75;1.45;;;;;;;13.89;85.34;100943.25;4844311;29;20090;-59
2022/08/17 12:32:22;;;;;;;3.50;1.65;;;;;;;13.98;84.88;100941.91;4844334;29;20053;-58